createdAt,value
2019-03-20T00:01:09.707Z,4.27
2019-03-20T00:03:38.864Z,3.13
2019-03-20T00:06:07.900Z,3.90
2019-03-20T00:08:36.542Z,3.53
2019-03-20T00:11:05.466Z,3.70
2019-03-20T00:13:34.219Z,4.07
2019-03-20T00:16:03.225Z,3.63
2019-03-20T00:18:31.878Z,3.33
2019-03-20T00:21:00.533Z,3.50
2019-03-20T00:23:29.434Z,4.00
2019-03-20T00:25:58.179Z,3.87
2019-03-20T00:28:26.609Z,4.40
2019-03-20T00:30:54.932Z,3.97
2019-03-20T00:33:23.387Z,3.87
2019-03-20T00:35:52.123Z,3.47
2019-03-20T00:38:20.777Z,4.30
2019-03-20T00:40:49.685Z,3.97
2019-03-20T00:43:18.425Z,4.27
2019-03-20T00:45:46.728Z,3.80
2019-03-20T00:48:15.201Z,3.70
2019-03-20T00:50:43.961Z,3.53
2019-03-20T00:53:12.605Z,3.97
2019-03-20T00:55:40.944Z,4.00
2019-03-20T00:58:09.257Z,4.10
2019-03-20T01:00:37.615Z,3.80
2019-03-20T01:03:06.023Z,4.53
2019-03-20T01:05:34.578Z,3.90
2019-03-20T01:08:03.262Z,3.40
2019-03-20T01:10:31.766Z,4.17
2019-03-20T01:13:00.088Z,4.33
2019-03-20T01:15:28.407Z,4.20
2019-03-20T01:17:56.713Z,4.07
2019-03-20T01:20:25.139Z,4.00
2019-03-20T01:22:53.530Z,4.33
2019-03-20T01:25:21.975Z,4.13
2019-03-20T01:27:50.407Z,3.90
2019-03-20T01:30:31.510Z,4.60
2019-03-20T01:33:00.952Z,4.00
2019-03-20T01:35:29.298Z,3.83
2019-03-20T01:37:57.731Z,3.50
2019-03-20T01:40:26.155Z,4.63
2019-03-20T01:42:54.479Z,3.73
2019-03-20T01:45:22.798Z,4.17
2019-03-20T01:47:51.135Z,4.33
2019-03-20T01:50:19.766Z,3.77
2019-03-20T01:52:48.108Z,3.90
2019-03-20T01:55:16.553Z,4.20
2019-03-20T01:57:44.922Z,4.00
2019-03-20T02:00:13.785Z,3.90
2019-03-20T02:02:42.111Z,4.20
2019-03-20T02:05:10.566Z,3.73
2019-03-20T02:07:38.891Z,3.90
2019-03-20T02:10:08.043Z,4.40
2019-03-20T02:12:36.822Z,3.93
2019-03-20T02:15:06.799Z,3.83
2019-03-20T02:17:35.131Z,4.83
2019-03-20T02:20:03.543Z,4.13
2019-03-20T02:22:31.890Z,4.53
2019-03-20T02:25:00.391Z,4.00
2019-03-20T02:27:28.885Z,4.53
2019-03-20T02:29:57.208Z,4.40
2019-03-20T02:32:27.152Z,3.83
2019-03-20T02:34:55.481Z,4.67
2019-03-20T02:37:23.831Z,4.37
2019-03-20T02:39:52.149Z,4.33
2019-03-20T02:42:20.461Z,4.47
2019-03-20T02:44:48.791Z,3.93
2019-03-20T02:47:17.104Z,4.17
2019-03-20T02:49:45.530Z,4.30
2019-03-20T02:52:13.864Z,3.47
2019-03-20T02:54:42.182Z,4.40
2019-03-20T02:57:10.567Z,4.80
2019-03-20T02:59:38.890Z,4.27
2019-03-20T03:02:07.268Z,4.30
2019-03-20T03:04:35.593Z,4.40
2019-03-20T03:07:04.027Z,4.20
2019-03-20T03:09:32.371Z,4.37
2019-03-20T03:12:00.790Z,4.50
2019-03-20T03:14:29.146Z,3.93
2019-03-20T03:16:57.491Z,4.23
2019-03-20T03:19:25.823Z,4.97
2019-03-20T03:21:54.133Z,4.30
2019-03-20T03:24:22.467Z,4.33
2019-03-20T03:26:50.794Z,3.80
2019-03-20T03:29:19.164Z,4.07
2019-03-20T03:31:47.497Z,4.70
2019-03-20T03:34:15.820Z,3.80
2019-03-20T03:36:44.153Z,3.60
2019-03-20T03:39:12.467Z,4.20
2019-03-20T03:41:40.807Z,4.17
2019-03-20T03:44:09.115Z,4.03
2019-03-20T03:46:37.456Z,4.30
2019-03-20T03:49:05.805Z,4.67
2019-03-20T03:51:34.145Z,3.90
2019-03-20T03:54:02.608Z,3.70
2019-03-20T03:56:30.932Z,4.20
2019-03-20T03:58:59.299Z,3.83
2019-03-20T04:01:27.707Z,4.20
2019-03-20T04:03:56.138Z,4.30
2019-03-20T04:06:34.793Z,3.77
2019-03-20T04:08:54.529Z,4.00
2019-03-20T04:11:22.851Z,3.93
2019-03-20T04:13:51.179Z,4.20
2019-03-20T04:16:19.507Z,3.93
2019-03-20T04:18:47.854Z,4.10
2019-03-20T04:21:16.282Z,4.20
2019-03-20T04:23:44.615Z,4.33
2019-03-20T04:26:12.969Z,4.23
2019-03-20T04:28:41.783Z,4.03
2019-03-20T04:31:10.664Z,4.60
2019-03-20T04:33:38.990Z,4.53
2019-03-20T04:36:07.294Z,4.33
2019-03-20T04:38:35.615Z,4.30
2019-03-20T04:41:03.955Z,4.07
2019-03-20T04:43:32.268Z,4.73
2019-03-20T04:46:01.074Z,4.13
2019-03-20T04:48:29.386Z,4.00
2019-03-20T04:50:57.734Z,4.80
2019-03-20T04:53:26.070Z,4.20
2019-03-20T04:55:54.421Z,4.73
2019-03-20T04:58:22.746Z,4.60
2019-03-20T05:00:51.154Z,4.80
2019-03-20T05:03:19.507Z,4.57
2019-03-20T05:05:48.188Z,3.90
2019-03-20T05:08:16.855Z,4.17
2019-03-20T05:10:45.187Z,4.37
2019-03-20T05:13:13.542Z,4.53
2019-03-20T05:15:41.874Z,4.70
2019-03-20T05:18:10.211Z,5.13
2019-03-20T05:20:38.530Z,4.70
2019-03-20T05:23:08.516Z,4.20
2019-03-20T05:25:36.950Z,4.60
2019-03-20T05:28:05.384Z,4.83
2019-03-20T05:30:33.730Z,4.50
2019-03-20T05:33:02.082Z,4.27
2019-03-20T05:35:30.546Z,5.10
2019-03-20T05:37:58.863Z,4.70
2019-03-20T05:40:27.186Z,4.60
2019-03-20T05:42:55.534Z,4.57
2019-03-20T05:45:23.855Z,4.73
2019-03-20T05:47:52.166Z,4.70
2019-03-20T05:50:20.479Z,4.60
2019-03-20T05:52:48.906Z,4.77
2019-03-20T05:55:17.343Z,4.27
2019-03-20T05:57:45.795Z,5.10
2019-03-20T06:00:15.520Z,4.80
2019-03-20T06:02:44.025Z,5.00
2019-03-20T06:05:12.654Z,4.70
2019-03-20T06:07:41.093Z,5.03
2019-03-20T06:10:10.687Z,4.30
2019-03-20T06:12:39.043Z,4.67
2019-03-20T06:15:07.747Z,5.70
2019-03-20T06:17:36.094Z,5.30
2019-03-20T06:20:04.715Z,5.43
2019-03-20T06:22:33.065Z,4.33
2019-03-20T06:25:01.403Z,4.90
2019-03-20T06:27:29.716Z,5.13
2019-03-20T06:29:58.043Z,4.40
2019-03-20T06:32:26.380Z,4.80
2019-03-20T06:34:54.701Z,5.03
2019-03-20T06:37:32.122Z,4.67
2019-03-20T06:39:53.509Z,5.13
2019-03-20T06:42:22.087Z,5.10
2019-03-20T06:44:50.406Z,4.73
2019-03-20T06:47:18.730Z,4.43
2019-03-20T06:49:47.047Z,4.70
2019-03-20T06:52:15.374Z,5.10
2019-03-20T06:54:43.722Z,4.57
2019-03-20T06:57:12.050Z,4.73
2019-03-20T07:00:12.460Z,5.37
2019-03-20T07:02:42.576Z,4.50
2019-03-20T07:05:28.998Z,5.33
2019-03-20T07:07:57.255Z,4.33
2019-03-20T07:10:53.458Z,4.83
2019-03-20T07:13:21.816Z,5.03
2019-03-20T07:15:50.159Z,4.53
2019-03-20T07:18:18.491Z,5.20
2019-03-20T07:20:46.810Z,4.57
2019-03-20T07:23:15.123Z,4.70
2019-03-20T07:25:43.471Z,4.70
2019-03-20T07:28:11.806Z,4.53
2019-03-20T07:30:40.139Z,4.87
2019-03-20T07:33:08.479Z,4.67
2019-03-20T07:35:36.802Z,4.83
2019-03-20T07:38:05.243Z,4.30
2019-03-20T07:40:33.573Z,5.23
2019-03-20T07:43:08.685Z,5.00
2019-03-20T07:45:31.938Z,4.77
2019-03-20T07:48:00.265Z,4.23
2019-03-20T07:50:28.575Z,4.67
2019-03-20T07:52:56.894Z,5.00
2019-03-20T07:55:28.423Z,3.90
2019-03-20T07:57:56.834Z,4.93
2019-03-20T08:00:25.243Z,4.50
2019-03-20T08:02:53.572Z,4.37
2019-03-20T08:05:29.158Z,4.63
2019-03-20T08:07:51.897Z,4.80
2019-03-20T08:10:20.396Z,4.30
2019-03-20T08:12:48.727Z,5.13
2019-03-20T08:15:17.054Z,4.87
2019-03-20T08:17:46.087Z,4.73
2019-03-20T08:20:14.946Z,4.53
2019-03-20T08:22:43.639Z,4.40
2019-03-20T08:25:12.275Z,4.57
2019-03-20T08:27:40.906Z,3.97
2019-03-20T08:30:10.381Z,4.70
2019-03-20T08:32:39.154Z,4.90
2019-03-20T08:35:07.680Z,4.90
2019-03-20T08:37:36.424Z,4.57
2019-03-20T08:40:05.146Z,4.67
2019-03-20T08:42:33.555Z,4.93
2019-03-20T08:45:01.829Z,4.00
2019-03-20T08:47:30.141Z,4.57
2019-03-20T08:49:58.460Z,4.67
2019-03-20T08:52:27.443Z,5.07
2019-03-20T08:54:56.092Z,4.33
2019-03-20T08:57:27.867Z,4.43
2019-03-20T08:59:56.232Z,4.30
2019-03-20T09:02:24.937Z,4.33
2019-03-20T09:04:53.975Z,4.37
2019-03-20T09:07:22.626Z,4.07
2019-03-20T09:09:51.444Z,4.77
2019-03-20T09:12:20.160Z,4.33
2019-03-20T09:14:49.306Z,4.80
2019-03-20T09:17:17.951Z,4.33
2019-03-20T09:19:46.250Z,4.47
2019-03-20T09:22:15.038Z,4.67
2019-03-20T09:24:43.846Z,4.30
2019-03-20T09:27:12.884Z,4.23
2019-03-20T09:29:41.522Z,4.67
2019-03-20T09:32:10.162Z,4.77
2019-03-20T09:34:38.982Z,4.10
2019-03-20T09:37:07.917Z,4.80
2019-03-20T09:39:36.662Z,3.83
2019-03-20T09:42:05.348Z,4.13
2019-03-20T09:44:34.129Z,4.30
2019-03-20T09:47:02.459Z,4.53
2019-03-20T09:49:30.762Z,3.80
2019-03-20T09:51:59.077Z,4.13
2019-03-20T09:54:27.410Z,4.63
2019-03-20T09:56:55.741Z,3.90
2019-03-20T09:59:24.070Z,4.33
2019-03-20T10:01:52.381Z,4.33
2019-03-20T10:04:20.791Z,3.87
2019-03-20T10:06:49.235Z,4.07
2019-03-20T10:09:17.547Z,4.23
2019-03-20T10:11:45.868Z,4.33
2019-03-20T10:14:14.661Z,4.53
2019-03-20T10:16:43.456Z,3.80
2019-03-20T10:19:11.990Z,3.73
2019-03-20T10:21:40.737Z,3.67
2019-03-20T10:24:09.670Z,3.80
2019-03-20T10:26:38.398Z,3.67
2019-03-20T10:29:07.026Z,3.93
2019-03-20T10:31:35.349Z,4.17
2019-03-20T10:34:03.678Z,3.77
2019-03-20T10:36:31.994Z,4.03
2019-03-20T10:39:06.603Z,3.77
2019-03-20T10:41:30.323Z,3.57
2019-03-20T10:43:58.693Z,3.43
2019-03-20T10:46:27.054Z,3.43
2019-03-20T10:48:56.484Z,3.70
2019-03-20T10:51:25.126Z,4.17
2019-03-20T10:53:53.466Z,3.93
2019-03-20T10:56:21.790Z,3.60
2019-03-20T10:58:50.093Z,4.07
2019-03-20T11:01:18.808Z,4.30
2019-03-20T11:03:47.834Z,4.17
2019-03-20T11:06:16.588Z,3.70
2019-03-20T11:08:45.406Z,4.20
2019-03-20T11:11:13.814Z,3.90
2019-03-20T11:13:42.126Z,4.40
2019-03-20T11:16:10.498Z,4.03
2019-03-20T11:18:38.843Z,3.70
2019-03-20T11:21:07.149Z,4.03
2019-03-20T11:23:35.487Z,3.83
2019-03-20T11:26:04.012Z,4.37
2019-03-20T11:28:32.339Z,3.90
2019-03-20T11:31:00.801Z,4.40
2019-03-20T11:33:29.441Z,3.80
2019-03-20T11:35:58.120Z,3.77
2019-03-20T11:38:26.649Z,3.20
2019-03-20T11:40:55.130Z,3.10
2019-03-20T11:43:23.960Z,3.57
2019-03-20T11:45:52.402Z,3.30
2019-03-20T11:48:21.039Z,3.03
2019-03-20T11:50:49.330Z,3.60
2019-03-20T11:53:17.677Z,3.20
2019-03-20T11:55:46.284Z,3.63
2019-03-20T11:58:15.009Z,3.63
2019-03-20T12:00:43.658Z,3.80
2019-03-20T12:03:12.091Z,3.70
2019-03-20T12:05:40.531Z,2.83
2019-03-20T12:08:08.967Z,3.33
2019-03-20T12:10:37.754Z,2.97
2019-03-20T12:13:06.057Z,2.63
2019-03-20T12:15:34.375Z,3.13
2019-03-20T12:18:02.794Z,3.00
2019-03-20T12:20:31.241Z,3.10
2019-03-20T12:22:59.563Z,3.17
2019-03-20T12:25:28.790Z,3.33
2019-03-20T12:27:57.459Z,2.97
2019-03-20T12:30:26.812Z,2.80
2019-03-20T12:32:55.215Z,3.17
2019-03-20T12:35:23.846Z,2.97
2019-03-20T12:37:52.602Z,3.40
2019-03-20T12:40:21.962Z,3.27
2019-03-20T12:42:50.394Z,3.33
2019-03-20T12:45:19.339Z,3.23
2019-03-20T12:47:48.015Z,3.40
2019-03-20T12:50:16.843Z,3.27
2019-03-20T12:52:45.962Z,3.07
2019-03-20T12:55:14.997Z,3.17
2019-03-20T12:57:44.000Z,3.13
2019-03-20T13:00:14.459Z,3.50
2019-03-20T13:02:43.662Z,3.30
2019-03-20T13:05:12.121Z,3.33
2019-03-20T13:07:40.933Z,2.77
2019-03-20T13:10:10.567Z,4.00
2019-03-20T13:12:38.914Z,2.73
2019-03-20T13:15:08.690Z,3.00
2019-03-20T13:17:37.162Z,2.30
2019-03-20T13:20:06.365Z,2.73
2019-03-20T13:22:35.131Z,2.53
2019-03-20T13:25:04.109Z,2.57
2019-03-20T13:27:34.006Z,2.97
2019-03-20T13:30:03.030Z,2.37
2019-03-20T13:32:31.838Z,2.70
2019-03-20T13:35:00.690Z,2.73
2019-03-20T13:37:29.506Z,2.93
2019-03-20T13:39:57.839Z,2.40
2019-03-20T13:42:26.157Z,2.30
2019-03-20T13:44:54.529Z,2.27
2019-03-20T13:47:22.820Z,1.93
2019-03-20T13:49:51.175Z,2.57
2019-03-20T13:52:19.473Z,2.00
2019-03-20T13:54:47.853Z,2.67
2019-03-20T13:57:16.815Z,2.70
2019-03-20T13:59:45.158Z,2.53
2019-03-20T14:02:13.492Z,2.40
2019-03-20T14:04:41.806Z,2.07
2019-03-20T14:07:10.160Z,2.60
2019-03-20T14:09:38.477Z,2.17
2019-03-20T14:12:06.883Z,2.23
2019-03-20T14:14:35.496Z,2.17
2019-03-20T14:17:04.330Z,2.20
2019-03-20T14:19:33.267Z,1.93
2019-03-20T14:22:02.006Z,2.30
2019-03-20T14:24:31.032Z,2.93
2019-03-20T14:26:59.706Z,2.33
2019-03-20T14:29:28.541Z,2.00
2019-03-20T14:31:57.034Z,2.10
2019-03-20T14:34:25.789Z,2.17
2019-03-20T14:36:54.702Z,2.27
2019-03-20T14:39:23.468Z,2.03
2019-03-20T14:41:52.466Z,1.90
2019-03-20T14:44:21.130Z,2.07
2019-03-20T14:46:49.767Z,2.30
2019-03-20T14:49:18.397Z,2.20
2019-03-20T14:51:47.309Z,1.90
2019-03-20T14:54:16.072Z,2.10
2019-03-20T14:56:44.685Z,1.90
2019-03-20T14:59:13.367Z,2.97
2019-03-20T15:01:42.145Z,2.10
2019-03-20T15:04:11.479Z,1.90
2019-03-20T15:06:40.225Z,1.90
2019-03-20T15:09:09.611Z,2.00
2019-03-20T15:11:38.267Z,1.80
2019-03-20T15:14:07.490Z,1.90
2019-03-20T15:16:36.346Z,2.07
2019-03-20T15:19:07.060Z,2.30
2019-03-20T15:21:35.397Z,1.87
2019-03-20T15:24:04.329Z,2.27
2019-03-20T15:26:33.053Z,1.90
2019-03-20T15:29:01.453Z,1.80
2019-03-20T15:31:29.801Z,2.20
2019-03-20T15:33:58.164Z,1.73
2019-03-20T15:36:26.534Z,2.03
2019-03-20T15:38:54.863Z,1.87
2019-03-20T15:41:23.486Z,2.17
2019-03-20T15:44:01.961Z,2.00
2019-03-20T15:46:21.901Z,1.90
2019-03-20T15:48:50.767Z,2.17
2019-03-20T15:51:19.794Z,1.97
2019-03-20T15:53:48.730Z,2.23
2019-03-20T15:56:17.474Z,2.20
2019-03-20T15:58:46.298Z,2.37
2019-03-20T16:01:15.521Z,2.27
2019-03-20T16:03:44.186Z,2.30
2019-03-20T16:06:13.015Z,2.30
2019-03-20T16:08:41.654Z,2.13
2019-03-20T16:11:10.650Z,2.70
2019-03-20T16:13:39.305Z,2.40
2019-03-20T16:16:07.931Z,2.30
2019-03-20T16:18:36.574Z,2.30
2019-03-20T16:21:05.222Z,2.73
2019-03-20T16:23:33.679Z,2.20
2019-03-20T16:26:02.087Z,2.53
2019-03-20T16:28:30.359Z,2.20
2019-03-20T16:30:58.697Z,2.73
2019-03-20T16:33:27.059Z,2.30
2019-03-20T16:35:55.418Z,2.53
2019-03-20T16:38:23.775Z,2.67
2019-03-20T16:40:53.082Z,2.67
2019-03-20T16:43:21.406Z,2.53
2019-03-20T16:45:49.817Z,2.57
2019-03-20T16:48:18.133Z,2.50
2019-03-20T16:50:46.545Z,2.33
2019-03-20T16:53:15.134Z,2.70
2019-03-20T16:55:43.575Z,2.50
2019-03-20T16:58:12.386Z,2.63
2019-03-20T17:00:40.795Z,2.90
2019-03-20T17:03:09.759Z,2.47
2019-03-20T17:05:39.671Z,2.40
2019-03-20T17:08:08.535Z,2.10
2019-03-20T17:10:38.126Z,2.40
2019-03-20T17:13:07.411Z,2.47
2019-03-20T17:15:35.819Z,2.70
2019-03-20T17:18:04.639Z,2.53
2019-03-20T17:20:32.921Z,2.13
2019-03-20T17:23:01.807Z,2.10
2019-03-20T17:25:30.646Z,2.40
2019-03-20T17:27:59.099Z,1.73
2019-03-20T17:30:28.595Z,2.67
2019-03-20T17:32:57.241Z,2.10
2019-03-20T17:35:28.183Z,2.10
2019-03-20T17:37:56.886Z,2.47
2019-03-20T17:40:25.715Z,2.40
2019-03-20T17:42:54.604Z,1.83
2019-03-20T17:45:23.696Z,2.10
2019-03-20T17:47:52.037Z,2.30
2019-03-20T17:50:21.514Z,2.47
2019-03-20T17:52:50.258Z,2.50
2019-03-20T17:55:19.091Z,1.77
2019-03-20T17:57:48.028Z,2.10
2019-03-20T18:00:17.811Z,1.90
2019-03-20T18:02:46.597Z,2.00
2019-03-20T18:05:15.211Z,2.47
2019-03-20T18:07:44.238Z,2.20
2019-03-20T18:10:12.911Z,2.43
2019-03-20T18:12:41.810Z,2.10
2019-03-20T18:15:11.527Z,2.37
2019-03-20T18:17:40.175Z,2.30
2019-03-20T18:20:09.459Z,2.23
2019-03-20T18:22:38.246Z,2.30
2019-03-20T18:25:07.250Z,2.47
2019-03-20T18:27:35.911Z,2.37
2019-03-20T18:30:05.082Z,2.47
2019-03-20T18:32:33.779Z,1.90
2019-03-20T18:35:02.385Z,2.30
2019-03-20T18:37:30.939Z,2.07
2019-03-20T18:39:59.292Z,2.47
2019-03-20T18:42:27.732Z,1.80
2019-03-20T18:44:56.075Z,2.00
2019-03-20T18:47:24.403Z,2.37
2019-03-20T18:49:52.731Z,1.70
2019-03-20T18:52:21.042Z,2.10
2019-03-20T18:54:49.387Z,2.57
2019-03-20T18:57:18.146Z,2.17
2019-03-20T18:59:46.803Z,2.10
2019-03-20T19:02:15.459Z,2.63
2019-03-20T19:04:44.291Z,2.20
2019-03-20T19:07:13.482Z,2.13
2019-03-20T19:09:42.562Z,2.47
2019-03-20T19:12:11.031Z,2.10
2019-03-20T19:14:39.356Z,2.77
2019-03-20T19:17:07.702Z,2.90
2019-03-20T19:19:36.061Z,2.30
2019-03-20T19:22:04.801Z,2.57
2019-03-20T19:24:33.136Z,2.70
2019-03-20T19:27:01.982Z,3.03
2019-03-20T19:29:30.923Z,2.97
2019-03-20T19:31:59.239Z,3.13
2019-03-20T19:34:27.801Z,3.40
2019-03-20T19:36:56.923Z,2.80
2019-03-20T19:39:25.574Z,3.30
2019-03-20T19:41:53.979Z,3.70
2019-03-20T19:44:22.290Z,3.53
2019-03-20T19:46:50.619Z,3.30
2019-03-20T19:49:18.947Z,3.90
2019-03-20T19:51:47.771Z,3.27
2019-03-20T19:54:16.594Z,3.30
2019-03-20T19:56:45.532Z,3.77
2019-03-20T19:59:14.271Z,3.53
2019-03-20T20:01:42.928Z,3.70
2019-03-20T20:04:11.752Z,3.47
2019-03-20T20:06:40.094Z,4.77
2019-03-20T20:09:08.491Z,3.40
2019-03-20T20:11:36.922Z,3.53
2019-03-20T20:14:05.255Z,4.07
2019-03-20T20:16:33.644Z,3.83
2019-03-20T20:19:01.949Z,4.43
2019-03-20T20:21:30.286Z,3.57
2019-03-20T20:23:58.653Z,3.27
2019-03-20T20:26:27.493Z,3.60
2019-03-20T20:28:56.155Z,4.33
2019-03-20T20:31:24.510Z,3.90
2019-03-20T20:33:53.257Z,3.77
2019-03-20T20:36:21.583Z,4.17
2019-03-20T20:38:50.956Z,3.50
2019-03-20T20:41:19.722Z,3.97
2019-03-20T20:43:48.114Z,3.87
2019-03-20T20:46:16.438Z,4.03
2019-03-20T20:48:44.951Z,4.07
2019-03-20T20:51:13.315Z,4.17
2019-03-20T20:53:41.900Z,4.30
2019-03-20T20:56:10.739Z,4.50
2019-03-20T20:58:39.669Z,4.10
2019-03-20T21:01:08.423Z,4.53
2019-03-20T21:03:37.042Z,4.23
2019-03-20T21:06:05.587Z,4.60
2019-03-20T21:08:33.927Z,4.47
2019-03-20T21:11:02.251Z,4.07
2019-03-20T21:13:31.014Z,3.73
2019-03-20T21:16:00.622Z,4.00
2019-03-20T21:18:58.139Z,3.73
2019-03-20T21:21:29.505Z,4.30
2019-03-20T21:24:15.675Z,4.33
2019-03-20T21:26:54.633Z,4.23
2019-03-20T21:29:41.226Z,4.07
2019-03-20T21:32:13.471Z,3.60
2019-03-20T21:35:01.736Z,3.50
2019-03-20T21:37:46.998Z,4.10
2019-03-20T21:40:17.098Z,4.00
2019-03-20T21:43:07.308Z,3.80
2019-03-20T21:45:55.912Z,4.53
2019-03-20T21:48:24.550Z,4.10
2019-03-20T21:51:20.712Z,4.50
2019-03-20T21:54:08.039Z,4.67
2019-03-20T21:56:37.816Z,3.53
2019-03-20T21:59:14.124Z,3.70
2019-03-20T22:01:58.893Z,4.27
2019-03-20T22:04:28.273Z,4.00
2019-03-20T22:07:21.875Z,4.27
2019-03-20T22:10:16.014Z,4.20
2019-03-20T22:12:57.290Z,3.77
2019-03-20T22:15:30.384Z,4.50
2019-03-20T22:18:16.888Z,3.80
2019-03-20T22:21:07.450Z,4.00
2019-03-20T22:23:42.201Z,4.43
2019-03-20T22:26:29.799Z,4.00
2019-03-20T22:29:05.564Z,4.20
2019-03-20T22:31:35.174Z,4.00
2019-03-20T22:34:21.734Z,4.10
2019-03-20T22:36:51.163Z,4.00
2019-03-20T22:39:53.924Z,4.43
2019-03-20T22:42:28.411Z,3.67
2019-03-20T22:45:00.757Z,4.80
2019-03-20T22:47:57.688Z,4.83
2019-03-20T22:50:38.678Z,4.70
2019-03-20T22:53:26.309Z,4.67
2019-03-20T22:56:20.195Z,3.73
2019-03-20T22:58:49.628Z,4.23
2019-03-20T23:01:49.815Z,4.20
2019-03-20T23:04:20.836Z,4.53
2019-03-20T23:06:50.014Z,4.40
2019-03-20T23:09:18.988Z,4.60
2019-03-20T23:11:48.585Z,4.57
2019-03-20T23:14:17.651Z,4.50
2019-03-20T23:16:46.671Z,4.67
2019-03-20T23:19:15.694Z,4.40
2019-03-20T23:21:44.326Z,4.60
2019-03-20T23:24:13.055Z,4.97
2019-03-20T23:26:42.074Z,4.63
2019-03-20T23:29:11.595Z,4.80
2019-03-20T23:31:40.665Z,4.53
2019-03-20T23:34:09.705Z,4.77
2019-03-20T23:36:38.719Z,4.63
2019-03-20T23:39:08.353Z,4.77
2019-03-20T23:41:37.729Z,3.73
2019-03-20T23:44:06.787Z,4.70
2019-03-20T23:46:35.699Z,5.23
2019-03-20T23:49:29.304Z,5.20
2019-03-20T23:51:57.909Z,5.20
2019-03-20T23:54:28.702Z,4.37
2019-03-20T23:56:57.302Z,4.53
2019-03-20T23:59:26.006Z,4.83
